sensor_id;sensor_type;location;lat;lon;timestamp;pressure;altitude;pressure_sealevel;temperature;humidity
4767;BME280;2397;53.576;9.746;2023-01-15T00:01:43;99370.75;;;5.59;100.00
4767;BME280;2397;53.576;9.746;2023-01-15T00:04:10;99360.50;;;5.61;100.00
4767;BME280;2397;53.576;9.746;2023-01-15T00:06:39;99365.59;;;5.59;100.00
4767;BME280;2397;53.576;9.746;2023-01-15T00:09:07;99364.78;;;5.62;100.00
4767;BME280;2397;53.576;9.746;2023-01-15T00:11:34;99357.06;;;5.59;100.00
4767;BME280;2397;53.576;9.746;2023-01-15T00:14:00;99361.34;;;5.58;100.00
4767;BME280;2397;53.576;9.746;2023-01-15T00:16:27;99351.06;;;5.57;100.00
4767;BME280;2397;53.576;9.746;2023-01-15T00:18:58;99354.47;;;5.57;100.00
4767;BME280;2397;53.576;9.746;2023-01-15T00:21:26;99355.28;;;5.53;100.00
4767;BME280;2397;53.576;9.746;2023-01-15T00:23:53;99355.28;;;5.53;100.00
4767;BME280;2397;53.576;9.746;2023-01-15T00:26:39;99360.44;;;5.56;100.00
4767;BME280;2397;53.576;9.746;2023-01-15T00:29:25;99359.53;;;5.51;100.00
4767;BME280;2397;53.576;9.746;2023-01-15T00:31:58;99359.53;;;5.51;100.00
4767;BME280;2397;53.576;9.746;2023-01-15T00:34:26;99371.53;;;5.52;100.00
4767;BME280;2397;53.576;9.746;2023-01-15T00:36:52;99373.25;;;5.53;100.00
4767;BME280;2397;53.576;9.746;2023-01-15T00:39:19;99378.41;;;5.56;100.00
4767;BME280;2397;53.576;9.746;2023-01-15T00:41:46;99378.38;;;5.53;100.00
4767;BME280;2397;53.576;9.746;2023-01-15T00:44:13;99376.69;;;5.52;100.00
4767;BME280;2397;53.576;9.746;2023-01-15T00:46:39;99382.56;;;5.45;100.00
4767;BME280;2397;53.576;9.746;2023-01-15T00:49:06;99378.28;;;5.44;100.00
4767;BME280;2397;53.576;9.746;2023-01-15T00:51:33;99372.31;;;5.47;100.00
4767;BME280;2397;53.576;9.746;2023-01-15T00:54:00;99381.75;;;5.49;100.00
4767;BME280;2397;53.576;9.746;2023-01-15T00:56:27;99380.88;;;5.49;100.00
4767;BME280;2397;53.576;9.746;2023-01-15T00:58:53;99393.78;;;5.53;100.00
4767;BME280;2397;53.576;9.746;2023-01-15T01:01:20;99392.91;;;5.53;100.00
4767;BME280;2397;53.576;9.746;2023-01-15T01:03:46;99395.47;;;5.51;100.00
4767;BME280;2397;53.576;9.746;2023-01-15T01:06:15;99398.00;;;5.48;100.00
4767;BME280;2397;53.576;9.746;2023-01-15T01:08:42;99408.25;;;5.47;100.00
4767;BME280;2397;53.576;9.746;2023-01-15T01:11:14;99395.41;;;5.45;100.00
4767;BME280;2397;53.576;9.746;2023-01-15T01:13:41;99405.66;;;5.43;100.00
4767;BME280;2397;53.576;9.746;2023-01-15T01:16:30;99404.81;;;5.46;100.00
4767;BME280;2397;53.576;9.746;2023-01-15T01:19:00;99409.97;;;5.48;100.00
4767;BME280;2397;53.576;9.746;2023-01-15T01:21:29;99416.84;;;5.52;100.00
4767;BME280;2397;53.576;9.746;2023-01-15T01:23:57;99420.22;;;5.48;100.00
4767;BME280;2397;53.576;9.746;2023-01-15T01:26:24;99416.81;;;5.49;100.00
4767;BME280;2397;53.576;9.746;2023-01-15T01:28:52;99420.19;;;5.46;100.00
4767;BME280;2397;53.576;9.746;2023-01-15T01:31:19;99415.97;;;5.48;100.00
4767;BME280;2397;53.576;9.746;2023-01-15T01:33:54;99423.66;;;5.48;100.00
4767;BME280;2397;53.576;9.746;2023-01-15T01:36:26;99427.94;;;5.49;100.00
4767;BME280;2397;53.576;9.746;2023-01-15T01:38:53;99421.13;;;5.51;100.00
4767;BME280;2397;53.576;9.746;2023-01-15T01:41:19;99416.03;;;5.54;100.00
4767;BME280;2397;53.576;9.746;2023-01-15T01:46:21;99423.75;;;5.56;100.00
4767;BME280;2397;53.576;9.746;2023-01-15T01:48:51;99429.72;;;5.55;100.00
4767;BME280;2397;53.576;9.746;2023-01-15T01:51:21;99428.94;;;5.60;100.00
4767;BME280;2397;53.576;9.746;2023-01-15T01:53:49;99422.06;;;5.59;100.00
4767;BME280;2397;53.576;9.746;2023-01-15T01:56:16;99426.38;;;5.60;100.00
4767;BME280;2397;53.576;9.746;2023-01-15T01:58:47;99435.78;;;5.60;100.00
4767;BME280;2397;53.576;9.746;2023-01-15T02:01:16;99415.25;;;5.58;100.00
4767;BME280;2397;53.576;9.746;2023-01-15T02:03:43;99418.69;;;5.62;100.00
4767;BME280;2397;53.576;9.746;2023-01-15T02:06:11;99415.25;;;5.60;100.00
4767;BME280;2397;53.576;9.746;2023-01-15T02:08:39;99408.41;;;5.60;100.00
4767;BME280;2397;53.576;9.746;2023-01-15T02:11:07;99407.53;;;5.58;100.00
4767;BME280;2397;53.576;9.746;2023-01-15T02:13:39;99405.00;;;5.61;100.00
4767;BME280;2397;53.576;9.746;2023-01-15T02:16:23;99397.31;;;5.61;100.00
4767;BME280;2397;53.576;9.746;2023-01-15T02:19:15;99397.28;;;5.58;100.00
4767;BME280;2397;53.576;9.746;2023-01-15T02:25:03;99401.50;;;5.55;100.00
4767;BME280;2397;53.576;9.746;2023-01-15T02:27:31;99408.34;;;5.56;100.00
4767;BME280;2397;53.576;9.746;2023-01-15T02:30:05;99404.06;;;5.56;100.00
4767;BME280;2397;53.576;9.746;2023-01-15T02:32:40;99408.34;;;5.56;100.00
4767;BME280;2397;53.576;9.746;2023-01-15T02:35:22;99404.09;;;5.58;100.00
4767;BME280;2397;53.576;9.746;2023-01-15T02:37:53;99397.31;;;5.61;100.00
4767;BME280;2397;53.576;9.746;2023-01-15T02:40:22;99398.94;;;5.56;100.00
4767;BME280;2397;53.576;9.746;2023-01-15T02:42:49;99393.00;;;5.59;100.00
4767;BME280;2397;53.576;9.746;2023-01-15T02:45:19;99407.53;;;5.58;100.00
4767;BME280;2397;53.576;9.746;2023-01-15T02:47:51;99402.41;;;5.58;100.00
4767;BME280;2397;53.576;9.746;2023-01-15T02:50:23;99410.09;;;5.58;100.00
4767;BME280;2397;53.576;9.746;2023-01-15T02:52:55;99399.81;;;5.57;100.00
4767;BME280;2397;53.576;9.746;2023-01-15T02:55:28;99393.78;;;5.53;100.00
4767;BME280;2397;53.576;9.746;2023-01-15T02:57:59;99411.78;;;5.56;100.00
4767;BME280;2397;53.576;9.746;2023-01-15T03:00:30;99399.84;;;5.58;100.00
4767;BME280;2397;53.576;9.746;2023-01-15T03:03:12;99400.69;;;5.57;100.00
4767;BME280;2397;53.576;9.746;2023-01-15T03:05:49;99391.25;;;5.58;100.00
4767;BME280;2397;53.576;9.746;2023-01-15T03:08:17;99403.28;;;5.60;100.00
4767;BME280;2397;53.576;9.746;2023-01-15T03:11:05;99401.53;;;5.58;100.00
4767;BME280;2397;53.576;9.746;2023-01-15T03:16:28;99399.78;;;5.52;100.00
4767;BME280;2397;53.576;9.746;2023-01-15T03:19:18;99390.38;;;5.54;100.00
4767;BME280;2397;53.576;9.746;2023-01-15T03:24:47;99383.53;;;5.56;100.00
4767;BME280;2397;53.576;9.746;2023-01-15T03:27:14;99385.25;;;5.54;100.00
4767;BME280;2397;53.576;9.746;2023-01-15T03:29:47;99380.09;;;5.53;100.00
4767;BME280;2397;53.576;9.746;2023-01-15T03:32:15;99371.63;;;5.61;100.00
4767;BME280;2397;53.576;9.746;2023-01-15T03:34:49;99368.13;;;5.55;100.00
4767;BME280;2397;53.576;9.746;2023-01-15T03:37:17;99378.41;;;5.56;100.00
4767;BME280;2397;53.576;9.746;2023-01-15T03:39:44;99373.25;;;5.55;100.00
4767;BME280;2397;53.576;9.746;2023-01-15T03:42:48;99370.75;;;5.59;100.00
4767;BME280;2397;53.576;9.746;2023-01-15T03:45:31;99363.91;;;5.58;100.00
4767;BME280;2397;53.576;9.746;2023-01-15T03:48:02;99365.56;;;5.55;100.00
4767;BME280;2397;53.576;9.746;2023-01-15T03:50:48;99360.44;;;5.56;100.00
4767;BME280;2397;53.576;9.746;2023-01-15T03:53:40;99373.25;;;5.53;100.00
4767;BME280;2397;53.576;9.746;2023-01-15T03:56:30;99365.53;;;5.53;100.00
4767;BME280;2397;53.576;9.746;2023-01-15T03:59:12;99367.28;;;5.54;100.00
4767;BME280;2397;53.576;9.746;2023-01-15T04:01:43;99361.28;;;5.54;100.00
4767;BME280;2397;53.576;9.746;2023-01-15T04:04:11;99365.53;;;5.53;100.00
4767;BME280;2397;53.576;9.746;2023-01-15T04:06:40;99364.66;;;5.51;100.00
4767;BME280;2397;53.576;9.746;2023-01-15T04:09:09;99351.81;;;5.48;100.00
4767;BME280;2397;53.576;9.746;2023-01-15T04:11:37;99350.94;;;5.48;100.00
4767;BME280;2397;53.576;9.746;2023-01-15T04:14:04;99355.25;;;5.52;100.00
4767;BME280;2397;53.576;9.746;2023-01-15T04:16:32;99355.28;;;5.53;100.00
4767;BME280;2397;53.576;9.746;2023-01-15T04:19:00;99350.16;;;5.55;100.00
4767;BME280;2397;53.576;9.746;2023-01-15T04:21:26;99351.84;;;5.51;100.00
4767;BME280;2397;53.576;9.746;2023-01-15T04:23:53;99339.03;;;5.53;100.00
4767;BME280;2397;53.576;9.746;2023-01-15T04:26:19;99345.06;;;5.59;100.00
4767;BME280;2397;53.576;9.746;2023-01-15T04:28:46;99336.53;;;5.59;100.00
4767;BME280;2397;53.576;9.746;2023-01-15T04:31:12;99331.31;;;5.53;100.00
4767;BME280;2397;53.576;9.746;2023-01-15T04:33:39;99334.69;;;5.49;100.00
4767;BME280;2397;53.576;9.746;2023-01-15T04:36:06;99328.72;;;5.48;100.00
4767;BME280;2397;53.576;9.746;2023-01-15T04:38:36;99330.47;;;5.52;100.00
4767;BME280;2397;53.576;9.746;2023-01-15T04:41:03;99339.84;;;5.50;100.00
4767;BME280;2397;53.576;9.746;2023-01-15T04:43:49;99346.69;;;5.48;100.00
4767;BME280;2397;53.576;9.746;2023-01-15T04:49:03;99330.41;;;5.49;100.00
4767;BME280;2397;53.576;9.746;2023-01-15T04:51:29;99343.22;;;5.48;100.00
4767;BME280;2397;53.576;9.746;2023-01-15T04:53:56;99351.78;;;5.47;100.00
4767;BME280;2397;53.576;9.746;2023-01-15T04:56:22;99352.63;;;5.47;100.00
4767;BME280;2397;53.576;9.746;2023-01-15T04:58:49;99335.50;;;5.46;100.00
4767;BME280;2397;53.576;9.746;2023-01-15T05:01:16;99331.28;;;5.50;100.00
4767;BME280;2397;53.576;9.746;2023-01-15T05:03:43;99330.38;;;5.46;100.00
4767;BME280;2397;53.576;9.746;2023-01-15T05:06:09;99334.66;;;5.45;100.00
4767;BME280;2397;53.576;9.746;2023-01-15T05:08:36;99332.94;;;5.46;100.00
4767;BME280;2397;53.576;9.746;2023-01-15T05:11:05;99331.22;;;5.43;100.00
4767;BME280;2397;53.576;9.746;2023-01-15T05:13:32;99337.19;;;5.41;100.00
4767;BME280;2397;53.576;9.746;2023-01-15T05:16:13;99336.41;;;5.48;100.00
4767;BME280;2397;53.576;9.746;2023-01-15T05:18:44;99333.03;;;5.52;100.00
4767;BME280;2397;53.576;9.746;2023-01-15T05:21:16;99322.78;;;5.54;100.00
4767;BME280;2397;53.576;9.746;2023-01-15T05:23:44;99330.41;;;5.49;100.00
4767;BME280;2397;53.576;9.746;2023-01-15T05:26:10;99328.72;;;5.50;100.00
4767;BME280;2397;53.576;9.746;2023-01-15T05:28:36;99327.03;;;5.52;100.00
4767;BME280;2397;53.576;9.746;2023-01-15T05:31:07;99323.59;;;5.51;100.00
4767;BME280;2397;53.576;9.746;2023-01-15T05:33:35;99324.44;;;5.49;100.00
4767;BME280;2397;53.576;9.746;2023-01-15T05:36:04;99324.47;;;5.52;100.00
4767;BME280;2397;53.576;9.746;2023-01-15T05:38:31;99325.28;;;5.49;100.00
4767;BME280;2397;53.576;9.746;2023-01-15T05:40:58;99323.56;;;5.47;100.00
4767;BME280;2397;53.576;9.746;2023-01-15T05:43:24;99326.94;;;5.44;100.00
4767;BME280;2397;53.576;9.746;2023-01-15T05:45:51;99328.69;;;5.45;100.00
4767;BME280;2397;53.576;9.746;2023-01-15T05:48:17;99337.22;;;5.44;100.00
4767;BME280;2397;53.576;9.746;2023-01-15T05:50:44;99344.06;;;5.45;100.00
4767;BME280;2397;53.576;9.746;2023-01-15T05:53:10;99320.97;;;5.43;100.00
4767;BME280;2397;53.576;9.746;2023-01-15T05:55:36;99338.06;;;5.44;100.00
4767;BME280;2397;53.576;9.746;2023-01-15T05:58:03;99330.41;;;5.48;100.00
4767;BME280;2397;53.576;9.746;2023-01-15T06:00:29;99322.78;;;5.52;100.00
4767;BME280;2397;53.576;9.746;2023-01-15T06:02:56;99323.63;;;5.54;100.00
4767;BME280;2397;53.576;9.746;2023-01-15T06:05:22;99333.06;;;5.55;100.00
4767;BME280;2397;53.576;9.746;2023-01-15T06:07:49;99325.38;;;5.55;100.00
4767;BME280;2397;53.576;9.746;2023-01-15T06:10:17;99321.94;;;5.56;100.00
4767;BME280;2397;53.576;9.746;2023-01-15T06:12:44;99327.94;;;5.57;100.00
4767;BME280;2397;53.576;9.746;2023-01-15T06:15:10;99327.13;;;5.62;100.00
4767;BME280;2397;53.576;9.746;2023-01-15T06:17:37;99327.19;;;5.66;100.00
4767;BME280;2397;53.576;9.746;2023-01-15T06:20:04;99325.47;;;5.66;100.00
4767;BME280;2397;53.576;9.746;2023-01-15T06:22:30;99331.47;;;5.68;100.00
4767;BME280;2397;53.576;9.746;2023-01-15T06:24:57;99334.06;;;5.70;100.00
4767;BME280;2397;53.576;9.746;2023-01-15T06:27:23;99321.22;;;5.68;100.00
4767;BME280;2397;53.576;9.746;2023-01-15T06:29:49;99323.78;;;5.70;100.00
4767;BME280;2397;53.576;9.746;2023-01-15T06:32:16;99325.50;;;5.68;100.00
4767;BME280;2397;53.576;9.746;2023-01-15T06:34:42;99328.91;;;5.67;100.00
4767;BME280;2397;53.576;9.746;2023-01-15T06:37:09;99327.22;;;5.69;100.00
4767;BME280;2397;53.576;9.746;2023-01-15T06:39:36;99319.53;;;5.69;100.00
4767;BME280;2397;53.576;9.746;2023-01-15T06:42:02;99326.38;;;5.71;100.00
4767;BME280;2397;53.576;9.746;2023-01-15T06:44:47;99321.25;;;5.71;100.00
4767;BME280;2397;53.576;9.746;2023-01-15T06:47:32;99318.69;;;5.73;100.00
4767;BME280;2397;53.576;9.746;2023-01-15T06:49:58;99334.09;;;5.73;100.00
4767;BME280;2397;53.576;9.746;2023-01-15T06:52:26;99322.94;;;5.71;100.00
4767;BME280;2397;53.576;9.746;2023-01-15T06:54:53;99334.03;;;5.68;100.00
4767;BME280;2397;53.576;9.746;2023-01-15T06:57:20;99323.78;;;5.70;100.00
4767;BME280;2397;53.576;9.746;2023-01-15T06:59:48;99322.09;;;5.69;100.00
4767;BME280;2397;53.576;9.746;2023-01-15T07:02:14;99315.25;;;5.71;100.00
4767;BME280;2397;53.576;9.746;2023-01-15T07:04:42;99313.53;;;5.70;100.00
4767;BME280;2397;53.576;9.746;2023-01-15T07:07:09;99325.50;;;5.69;100.00
4767;BME280;2397;53.576;9.746;2023-01-15T07:09:35;99323.78;;;5.68;100.00
4767;BME280;2397;53.576;9.746;2023-01-15T07:12:02;99325.47;;;5.66;100.00
4767;BME280;2397;53.576;9.746;2023-01-15T07:14:28;99321.13;;;5.60;100.00
4767;BME280;2397;53.576;9.746;2023-01-15T07:16:56;99316.88;;;5.62;100.00
4767;BME280;2397;53.576;9.746;2023-01-15T07:19:24;99319.44;;;5.62;100.00
4767;BME280;2397;53.576;9.746;2023-01-15T07:21:51;99322.88;;;5.63;100.00
4767;BME280;2397;53.576;9.746;2023-01-15T07:24:17;99321.16;;;5.62;100.00
4767;BME280;2397;53.576;9.746;2023-01-15T07:26:44;99318.56;;;5.60;100.00
4767;BME280;2397;53.576;9.746;2023-01-15T07:29:11;99308.31;;;5.62;100.00
4767;BME280;2397;53.576;9.746;2023-01-15T07:31:38;99323.69;;;5.60;100.00
4767;BME280;2397;53.576;9.746;2023-01-15T07:34:10;99312.56;;;5.58;100.00
4767;BME280;2397;53.576;9.746;2023-01-15T07:36:46;99313.41;;;5.57;100.00
4767;BME280;2397;53.576;9.746;2023-01-15T07:39:13;99315.13;;;5.57;100.00
4767;BME280;2397;53.576;9.746;2023-01-15T07:41:40;99309.06;;;5.53;100.00
4767;BME280;2397;53.576;9.746;2023-01-15T07:44:24;99321.06;;;5.53;100.00
4767;BME280;2397;53.576;9.746;2023-01-15T07:47:18;99331.31;;;5.51;100.00
4767;BME280;2397;53.576;9.746;2023-01-15T07:50:06;99344.97;;;5.49;100.00
4767;BME280;2397;53.576;9.746;2023-01-15T07:52:34;99321.03;;;5.51;100.00
4767;BME280;2397;53.576;9.746;2023-01-15T07:55:01;99320.13;;;5.46;100.00
4767;BME280;2397;53.576;9.746;2023-01-15T07:57:29;99318.41;;;5.45;100.00
4767;BME280;2397;53.576;9.746;2023-01-15T07:59:55;99330.47;;;5.52;100.00
4767;BME280;2397;53.576;9.746;2023-01-15T08:02:22;99330.41;;;5.49;100.00
4767;BME280;2397;53.576;9.746;2023-01-15T08:04:48;99320.16;;;5.49;100.00
4767;BME280;2397;53.576;9.746;2023-01-15T08:07:18;99338.09;;;5.49;100.00
4767;BME280;2397;53.576;9.746;2023-01-15T08:09:44;99330.38;;;5.46;100.00
4767;BME280;2397;53.576;9.746;2023-01-15T08:12:11;99327.81;;;5.46;100.00
4767;BME280;2397;53.576;9.746;2023-01-15T08:14:55;99334.69;;;5.47;100.00
4767;BME280;2397;53.576;9.746;2023-01-15T08:17:42;99334.66;;;5.45;100.00
4767;BME280;2397;53.576;9.746;2023-01-15T08:20:12;99337.19;;;5.42;100.00
4767;BME280;2397;53.576;9.746;2023-01-15T08:22:39;99317.47;;;5.40;100.00
4767;BME280;2397;53.576;9.746;2023-01-15T08:25:07;99345.72;;;5.40;100.00
4767;BME280;2397;53.576;9.746;2023-01-15T08:27:35;99336.28;;;5.39;100.00
4767;BME280;2397;53.576;9.746;2023-01-15T08:30:04;99323.38;;;5.33;100.00
4767;BME280;2397;53.576;9.746;2023-01-15T08:32:30;99330.19;;;5.27;100.00
4767;BME280;2397;53.576;9.746;2023-01-15T08:34:57;99331.03;;;5.30;100.00
4767;BME280;2397;53.576;9.746;2023-01-15T08:37:23;99328.47;;;5.30;100.00
4767;BME280;2397;53.576;9.746;2023-01-15T08:39:50;99325.94;;;5.31;100.00
4767;BME280;2397;53.576;9.746;2023-01-15T08:42:19;99334.50;;;5.30;100.00
4767;BME280;2397;53.576;9.746;2023-01-15T08:44:46;99307.03;;;5.23;100.00
4767;BME280;2397;53.576;9.746;2023-01-15T08:47:14;99307.94;;;5.28;100.00
4767;BME280;2397;53.576;9.746;2023-01-15T08:49:40;99320.75;;;5.26;100.00
4767;BME280;2397;53.576;9.746;2023-01-15T08:52:07;99306.16;;;5.22;100.00
4767;BME280;2397;53.576;9.746;2023-01-15T08:54:33;99301.06;;;5.25;100.00
4767;BME280;2397;53.576;9.746;2023-01-15T08:57:00;99295.03;;;5.22;100.00
4767;BME280;2397;53.576;9.746;2023-01-15T08:59:26;99308.69;;;5.19;100.00
4767;BME280;2397;53.576;9.746;2023-01-15T09:01:52;99296.72;;;5.18;100.00
4767;BME280;2397;53.576;9.746;2023-01-15T09:04:20;99292.44;;;5.19;100.00
4767;BME280;2397;53.576;9.746;2023-01-15T09:06:47;99286.47;;;5.20;100.00
4767;BME280;2397;53.576;9.746;2023-01-15T09:09:14;99290.69;;;5.16;100.00
4767;BME280;2397;53.576;9.746;2023-01-15T09:11:41;99283.03;;;5.19;100.00
4767;BME280;2397;53.576;9.746;2023-01-15T09:14:09;99291.56;;;5.15;100.00
4767;BME280;2397;53.576;9.746;2023-01-15T09:16:56;99302.66;;;5.14;100.00
4767;BME280;2397;53.576;9.746;2023-01-15T09:19:23;99300.13;;;5.17;100.00
4767;BME280;2397;53.576;9.746;2023-01-15T09:21:49;99311.28;;;5.22;100.00
4767;BME280;2397;53.576;9.746;2023-01-15T09:24:16;99313.94;;;5.27;100.00
4767;BME280;2397;53.576;9.746;2023-01-15T09:26:42;99304.56;;;5.31;100.00
4767;BME280;2397;53.576;9.746;2023-01-15T09:29:09;99304.56;;;5.31;100.00
4767;BME280;2397;53.576;9.746;2023-01-15T09:31:35;99303.75;;;5.35;100.00
4767;BME280;2397;53.576;9.746;2023-01-15T09:34:02;99318.31;;;5.39;100.00
4767;BME280;2397;53.576;9.746;2023-01-15T09:36:31;99318.38;;;5.42;100.00
4767;BME280;2397;53.576;9.746;2023-01-15T09:38:59;99308.97;;;5.42;100.00
4767;BME280;2397;53.576;9.746;2023-01-15T09:47:33;99334.00;;;5.63;100.00
4767;BME280;2397;53.576;9.746;2023-01-15T09:50:21;99328.91;;;5.67;100.00
4767;BME280;2397;53.576;9.746;2023-01-15T09:55:34;99318.66;;;5.70;100.00
4767;BME280;2397;53.576;9.746;2023-01-15T09:58:05;99307.53;;;5.69;100.00
4767;BME280;2397;53.576;9.746;2023-01-15T10:00:39;99342.63;;;5.67;100.00
4767;BME280;2397;53.576;9.746;2023-01-15T10:05:42;99326.41;;;5.74;100.00
4767;BME280;2397;53.576;9.746;2023-01-15T10:08:39;99303.28;;;5.73;100.00
4767;BME280;2397;53.576;9.746;2023-01-15T10:16:24;99318.75;;;5.76;100.00
4767;BME280;2397;53.576;9.746;2023-01-15T10:18:51;99322.22;;;5.84;100.00
4767;BME280;2397;53.576;9.746;2023-01-15T10:21:26;99325.66;;;5.85;100.00
4767;BME280;2397;53.576;9.746;2023-01-15T10:24:01;99335.91;;;5.83;100.00
4767;BME280;2397;53.576;9.746;2023-01-15T10:26:38;99328.16;;;5.77;100.00
4767;BME280;2397;53.576;9.746;2023-01-15T10:29:16;99320.47;;;5.81;100.00
4767;BME280;2397;53.576;9.746;2023-01-15T10:31:51;99335.03;;;5.79;100.00
4767;BME280;2397;53.576;9.746;2023-01-15T10:37:14;99316.09;;;5.70;100.00
4767;BME280;2397;53.576;9.746;2023-01-15T10:42:29;99320.38;;;5.71;100.00
4767;BME280;2397;53.576;9.746;2023-01-15T10:45:11;99305.78;;;5.67;100.00
4767;BME280;2397;53.576;9.746;2023-01-15T10:47:41;99291.31;;;5.72;100.00
4767;BME280;2397;53.576;9.746;2023-01-15T10:50:19;99296.44;;;5.72;100.00
4767;BME280;2397;53.576;9.746;2023-01-15T10:52:50;99289.63;;;5.75;100.00
4767;BME280;2397;53.576;9.746;2023-01-15T10:55:29;99288.72;;;5.69;100.00
4767;BME280;2397;53.576;9.746;2023-01-15T10:58:14;99285.25;;;5.67;100.00
4767;BME280;2397;53.576;9.746;2023-01-15T11:00:45;99277.53;;;5.67;100.00
4767;BME280;2397;53.576;9.746;2023-01-15T11:03:19;99292.94;;;5.67;100.00
4767;BME280;2397;53.576;9.746;2023-01-15T11:05:47;99270.69;;;5.64;100.00
4767;BME280;2397;53.576;9.746;2023-01-15T11:08:23;99278.34;;;5.61;100.00
4767;BME280;2397;53.576;9.746;2023-01-15T11:11:20;99296.31;;;5.61;100.00
4767;BME280;2397;53.576;9.746;2023-01-15T11:13:52;99271.53;;;5.61;100.00
4767;BME280;2397;53.576;9.746;2023-01-15T11:16:39;99265.50;;;5.61;100.00
4767;BME280;2397;53.576;9.746;2023-01-15T11:19:28;99269.84;;;5.65;100.00
4767;BME280;2397;53.576;9.746;2023-01-15T11:22:18;99262.13;;;5.65;100.00
4767;BME280;2397;53.576;9.746;2023-01-15T11:24:46;99260.47;;;5.69;100.00
4767;BME280;2397;53.576;9.746;2023-01-15T11:27:15;99266.44;;;5.66;100.00
4767;BME280;2397;53.576;9.746;2023-01-15T11:29:44;99272.38;;;5.63;100.00
4767;BME280;2397;53.576;9.746;2023-01-15T11:32:30;99274.06;;;5.58;100.00
4767;BME280;2397;53.576;9.746;2023-01-15T11:35:14;99279.03;;;5.46;100.00
4767;BME280;2397;53.576;9.746;2023-01-15T11:37:41;99295.19;;;5.37;100.00
4767;BME280;2397;53.576;9.746;2023-01-15T11:40:34;99281.41;;;5.24;100.00
4767;BME280;2397;53.576;9.746;2023-01-15T11:43:00;99290.00;;;5.30;100.00
4767;BME280;2397;53.576;9.746;2023-01-15T11:45:47;99296.72;;;5.17;100.00
4767;BME280;2397;53.576;9.746;2023-01-15T11:48:41;99305.84;;;4.96;100.00
4767;BME280;2397;53.576;9.746;2023-01-15T11:51:27;99325.03;;;4.65;100.00
4767;BME280;2397;53.576;9.746;2023-01-15T11:53:59;99284.38;;;4.28;100.00
4767;BME280;2397;53.576;9.746;2023-01-15T11:56:29;99279.16;;;4.22;100.00
4767;BME280;2397;53.576;9.746;2023-01-15T11:59:00;99274.75;;;4.12;100.00
4767;BME280;2397;53.576;9.746;2023-01-15T12:01:32;99275.53;;;4.09;100.00
4767;BME280;2397;53.576;9.746;2023-01-15T12:04:06;99266.16;;;4.10;100.00
4767;BME280;2397;53.576;9.746;2023-01-15T12:06:45;99274.75;;;4.12;100.00
4767;BME280;2397;53.576;9.746;2023-01-15T12:12:06;99261.38;;;4.31;100.00
4767;BME280;2397;53.576;9.746;2023-01-15T12:14:39;99276.91;;;4.44;100.00
4767;BME280;2397;53.576;9.746;2023-01-15T12:17:28;99273.69;;;4.57;100.00
4767;BME280;2397;53.576;9.746;2023-01-15T12:20:26;99278.72;;;4.51;100.00
4767;BME280;2397;53.576;9.746;2023-01-15T12:23:18;99265.91;;;4.49;100.00
4767;BME280;2397;53.576;9.746;2023-01-15T12:26:04;99260.81;;;4.52;100.00
4767;BME280;2397;53.576;9.746;2023-01-15T12:28:37;99259.06;;;4.51;100.00
4767;BME280;2397;53.576;9.746;2023-01-15T12:31:21;99249.72;;;4.52;100.00
4767;BME280;2397;53.576;9.746;2023-01-15T12:33:54;99254.75;;;4.44;100.00
4767;BME280;2397;53.576;9.746;2023-01-15T12:39:13;99245.22;;;4.37;100.00
4767;BME280;2397;53.576;9.746;2023-01-15T12:41:45;99248.63;;;4.36;100.00
4767;BME280;2397;53.576;9.746;2023-01-15T12:44:51;99235.25;;;4.58;100.00
4767;BME280;2397;53.576;9.746;2023-01-15T12:50:34;99219.28;;;4.78;100.00
4767;BME280;2397;53.576;9.746;2023-01-15T12:53:24;99227.03;;;4.81;100.00
4767;BME280;2397;53.576;9.746;2023-01-15T12:58:48;99225.31;;;4.80;100.00
4767;BME280;2397;53.576;9.746;2023-01-15T13:01:31;99201.34;;;4.78;100.00
4767;BME280;2397;53.576;9.746;2023-01-15T13:06:39;99207.44;;;4.86;100.00
4767;BME280;2397;53.576;9.746;2023-01-15T13:09:27;99216.84;;;4.87;100.00
4767;BME280;2397;53.576;9.746;2023-01-15T13:11:56;99226.19;;;4.85;100.00
4767;BME280;2397;53.576;9.746;2023-01-15T13:14:23;99188.66;;;4.87;100.00
4767;BME280;2397;53.576;9.746;2023-01-15T13:17:02;99194.66;;;4.91;100.00
4767;BME280;2397;53.576;9.746;2023-01-15T13:19:39;99200.75;;;4.99;100.00
4767;BME280;2397;53.576;9.746;2023-01-15T13:22:13;99201.66;;;5.07;100.00
4767;BME280;2397;53.576;9.746;2023-01-15T13:25:17;99193.19;;;5.15;100.00
4767;BME280;2397;53.576;9.746;2023-01-15T13:30:47;99196.81;;;5.34;100.00
4767;BME280;2397;53.576;9.746;2023-01-15T13:33:36;99174.56;;;5.33;100.00
4767;BME280;2397;53.576;9.746;2023-01-15T13:36:17;99181.47;;;5.40;100.00
4767;BME280;2397;53.576;9.746;2023-01-15T13:38:48;99176.38;;;5.44;100.00
4767;BME280;2397;53.576;9.746;2023-01-15T13:41:21;99173.84;;;5.49;100.00
4767;BME280;2397;53.576;9.746;2023-01-15T13:44:20;99185.91;;;5.56;100.00
4767;BME280;2397;53.576;9.746;2023-01-15T13:46:58;99172.25;;;5.59;100.00
4767;BME280;2397;53.576;9.746;2023-01-15T13:49:31;99195.41;;;5.70;100.00
4767;BME280;2397;53.576;9.746;2023-01-15T13:51:58;99183.56;;;5.84;100.00
4767;BME280;2397;53.576;9.746;2023-01-15T13:54:30;99174.19;;;5.89;100.00
4767;BME280;2397;53.576;9.746;2023-01-15T13:57:32;99182.78;;;5.93;100.00
4767;BME280;2397;53.576;9.746;2023-01-15T14:00:04;99164.78;;;5.88;100.00
4767;BME280;2397;53.576;9.746;2023-01-15T14:02:33;99178.41;;;5.83;100.00
4767;BME280;2397;53.576;9.746;2023-01-15T14:05:24;99180.09;;;5.76;100.00
4767;BME280;2397;53.576;9.746;2023-01-15T14:07:52;99174.97;;;5.76;100.00
4767;BME280;2397;53.576;9.746;2023-01-15T14:10:24;99171.53;;;5.77;100.00
4767;BME280;2397;53.576;9.746;2023-01-15T14:13:24;99162.03;;;5.68;100.00
4767;BME280;2397;53.576;9.746;2023-01-15T14:18:26;99166.31;;;5.66;100.00
4767;BME280;2397;53.576;9.746;2023-01-15T14:21:17;99173.16;;;5.66;100.00
4767;BME280;2397;53.576;9.746;2023-01-15T14:24:07;99189.44;;;5.71;100.00
4767;BME280;2397;53.576;9.746;2023-01-15T14:32:26;99174.03;;;5.68;100.00
4767;BME280;2397;53.576;9.746;2023-01-15T14:34:57;99179.19;;;5.71;100.00
4767;BME280;2397;53.576;9.746;2023-01-15T14:37:29;99163.81;;;5.75;100.00
4767;BME280;2397;53.576;9.746;2023-01-15T14:39:58;99197.22;;;5.80;100.00
4767;BME280;2397;53.576;9.746;2023-01-15T14:42:34;99169.84;;;5.80;100.00
4767;BME280;2397;53.576;9.746;2023-01-15T14:45:42;99178.41;;;5.83;100.00
4767;BME280;2397;53.576;9.746;2023-01-15T14:51:21;99183.50;;;5.76;100.00
4767;BME280;2397;53.576;9.746;2023-01-15T14:53:51;99192.06;;;5.77;100.00
4767;BME280;2397;53.576;9.746;2023-01-15T14:56:21;99204.91;;;5.77;100.00